sensor_id;sensor_type;location;lat;lon;timestamp;P1;durP1;ratioP1;P2;durP2;ratioP2
8466;SDS011;4270;48.148;11.648;2022-10-26T00:02:06;3.80;;;3.07;;
8466;SDS011;4270;48.148;11.648;2022-10-26T00:04:32;5.93;;;2.87;;
8466;SDS011;4270;48.148;11.648;2022-10-26T00:06:57;3.67;;;3.17;;
8466;SDS011;4270;48.148;11.648;2022-10-26T00:09:22;8.23;;;2.83;;
8466;SDS011;4270;48.148;11.648;2022-10-26T00:11:47;2.97;;;2.57;;
8466;SDS011;4270;48.148;11.648;2022-10-26T00:14:13;3.70;;;2.93;;
8466;SDS011;4270;48.148;11.648;2022-10-26T00:16:38;5.47;;;2.97;;
8466;SDS011;4270;48.148;11.648;2022-10-26T00:19:03;3.60;;;2.27;;
8466;SDS011;4270;48.148;11.648;2022-10-26T00:21:28;4.30;;;2.53;;
8466;SDS011;4270;48.148;11.648;2022-10-26T00:23:54;3.30;;;2.70;;
8466;SDS011;4270;48.148;11.648;2022-10-26T00:26:19;4.40;;;2.60;;
8466;SDS011;4270;48.148;11.648;2022-10-26T00:28:44;3.40;;;2.13;;
8466;SDS011;4270;48.148;11.648;2022-10-26T00:31:13;2.73;;;2.10;;
8466;SDS011;4270;48.148;11.648;2022-10-26T00:33:39;5.63;;;2.10;;
8466;SDS011;4270;48.148;11.648;2022-10-26T00:36:04;3.37;;;2.23;;
8466;SDS011;4270;48.148;11.648;2022-10-26T00:38:29;3.63;;;2.40;;
8466;SDS011;4270;48.148;11.648;2022-10-26T00:40:55;3.30;;;2.37;;
8466;SDS011;4270;48.148;11.648;2022-10-26T00:45:46;3.73;;;2.67;;
8466;SDS011;4270;48.148;11.648;2022-10-26T00:48:15;4.00;;;2.20;;
8466;SDS011;4270;48.148;11.648;2022-10-26T00:50:43;4.97;;;2.40;;
8466;SDS011;4270;48.148;11.648;2022-10-26T00:53:10;5.00;;;2.43;;
8466;SDS011;4270;48.148;11.648;2022-10-26T00:55:46;2.80;;;2.30;;
8466;SDS011;4270;48.148;11.648;2022-10-26T00:58:12;11.80;;;3.07;;
8466;SDS011;4270;48.148;11.648;2022-10-26T01:00:38;7.67;;;2.50;;
8466;SDS011;4270;48.148;11.648;2022-10-26T01:03:04;4.03;;;2.53;;
8466;SDS011;4270;48.148;11.648;2022-10-26T01:05:30;5.23;;;2.30;;
8466;SDS011;4270;48.148;11.648;2022-10-26T01:07:56;4.10;;;2.73;;
8466;SDS011;4270;48.148;11.648;2022-10-26T01:10:22;2.50;;;2.20;;
8466;SDS011;4270;48.148;11.648;2022-10-26T01:12:49;3.03;;;2.27;;
8466;SDS011;4270;48.148;11.648;2022-10-26T01:15:15;4.20;;;2.60;;
8466;SDS011;4270;48.148;11.648;2022-10-26T01:17:44;3.50;;;2.30;;
8466;SDS011;4270;48.148;11.648;2022-10-26T01:22:58;8.87;;;2.40;;
8466;SDS011;4270;48.148;11.648;2022-10-26T01:31:03;4.63;;;2.23;;
8466;SDS011;4270;48.148;11.648;2022-10-26T01:33:36;3.07;;;2.37;;
8466;SDS011;4270;48.148;11.648;2022-10-26T01:36:19;4.53;;;2.30;;
8466;SDS011;4270;48.148;11.648;2022-10-26T01:39:00;3.50;;;2.70;;
8466;SDS011;4270;48.148;11.648;2022-10-26T01:41:34;4.40;;;3.00;;
8466;SDS011;4270;48.148;11.648;2022-10-26T01:44:11;4.37;;;2.00;;
8466;SDS011;4270;48.148;11.648;2022-10-26T01:46:38;2.90;;;2.23;;
8466;SDS011;4270;48.148;11.648;2022-10-26T01:49:07;3.40;;;2.30;;
8466;SDS011;4270;48.148;11.648;2022-10-26T01:51:33;6.00;;;2.37;;
8466;SDS011;4270;48.148;11.648;2022-10-26T01:53:59;3.00;;;2.07;;
8466;SDS011;4270;48.148;11.648;2022-10-26T01:56:25;2.17;;;1.97;;
8466;SDS011;4270;48.148;11.648;2022-10-26T02:06:50;3.70;;;2.63;;
8466;SDS011;4270;48.148;11.648;2022-10-26T02:11:47;3.03;;;2.10;;
8466;SDS011;4270;48.148;11.648;2022-10-26T02:14:25;4.03;;;2.20;;
8466;SDS011;4270;48.148;11.648;2022-10-26T02:16:57;3.03;;;2.40;;
8466;SDS011;4270;48.148;11.648;2022-10-26T02:19:35;4.30;;;2.50;;
8466;SDS011;4270;48.148;11.648;2022-10-26T02:22:16;3.37;;;2.37;;
8466;SDS011;4270;48.148;11.648;2022-10-26T02:24:43;2.87;;;2.50;;
8466;SDS011;4270;48.148;11.648;2022-10-26T02:27:10;2.40;;;2.00;;
8466;SDS011;4270;48.148;11.648;2022-10-26T02:29:36;5.23;;;2.33;;
8466;SDS011;4270;48.148;11.648;2022-10-26T02:32:04;3.10;;;2.50;;
8466;SDS011;4270;48.148;11.648;2022-10-26T02:34:30;3.23;;;2.20;;
8466;SDS011;4270;48.148;11.648;2022-10-26T02:36:56;7.63;;;2.10;;
8466;SDS011;4270;48.148;11.648;2022-10-26T02:39:23;2.90;;;2.60;;
8466;SDS011;4270;48.148;11.648;2022-10-26T02:41:50;3.53;;;2.23;;
8466;SDS011;4270;48.148;11.648;2022-10-26T02:44:25;3.07;;;2.40;;
8466;SDS011;4270;48.148;11.648;2022-10-26T02:46:51;3.90;;;2.40;;
8466;SDS011;4270;48.148;11.648;2022-10-26T02:49:17;5.63;;;2.70;;
8466;SDS011;4270;48.148;11.648;2022-10-26T02:51:48;3.80;;;2.63;;
8466;SDS011;4270;48.148;11.648;2022-10-26T02:56:47;2.40;;;2.20;;
8466;SDS011;4270;48.148;11.648;2022-10-26T02:59:15;5.13;;;2.47;;
8466;SDS011;4270;48.148;11.648;2022-10-26T03:01:43;3.40;;;2.40;;
8466;SDS011;4270;48.148;11.648;2022-10-26T03:04:08;2.90;;;2.13;;
8466;SDS011;4270;48.148;11.648;2022-10-26T03:06:33;3.10;;;2.47;;
8466;SDS011;4270;48.148;11.648;2022-10-26T03:08:58;4.47;;;2.50;;
8466;SDS011;4270;48.148;11.648;2022-10-26T03:11:24;2.30;;;2.10;;
8466;SDS011;4270;48.148;11.648;2022-10-26T03:13:49;5.17;;;2.63;;
8466;SDS011;4270;48.148;11.648;2022-10-26T03:16:14;2.50;;;2.30;;
8466;SDS011;4270;48.148;11.648;2022-10-26T03:18:39;2.83;;;1.90;;
8466;SDS011;4270;48.148;11.648;2022-10-26T03:21:05;2.07;;;1.83;;
8466;SDS011;4270;48.148;11.648;2022-10-26T03:23:30;2.87;;;2.37;;
8466;SDS011;4270;48.148;11.648;2022-10-26T03:25:56;4.57;;;2.20;;
8466;SDS011;4270;48.148;11.648;2022-10-26T03:28:22;4.57;;;2.17;;
8466;SDS011;4270;48.148;11.648;2022-10-26T03:30:47;3.03;;;2.50;;
8466;SDS011;4270;48.148;11.648;2022-10-26T03:33:12;4.00;;;2.23;;
8466;SDS011;4270;48.148;11.648;2022-10-26T03:35:37;5.60;;;2.20;;
8466;SDS011;4270;48.148;11.648;2022-10-26T03:38:03;5.50;;;2.23;;
8466;SDS011;4270;48.148;11.648;2022-10-26T03:40:28;3.10;;;2.07;;
8466;SDS011;4270;48.148;11.648;2022-10-26T03:42:53;3.10;;;2.50;;
8466;SDS011;4270;48.148;11.648;2022-10-26T03:45:18;2.50;;;1.97;;
8466;SDS011;4270;48.148;11.648;2022-10-26T03:47:44;2.53;;;2.00;;
8466;SDS011;4270;48.148;11.648;2022-10-26T03:50:10;2.23;;;2.03;;
8466;SDS011;4270;48.148;11.648;2022-10-26T03:52:36;4.77;;;2.30;;
8466;SDS011;4270;48.148;11.648;2022-10-26T03:55:01;2.70;;;2.50;;
8466;SDS011;4270;48.148;11.648;2022-10-26T03:57:26;3.53;;;2.40;;
8466;SDS011;4270;48.148;11.648;2022-10-26T03:59:51;2.60;;;2.40;;
8466;SDS011;4270;48.148;11.648;2022-10-26T04:02:17;4.37;;;1.80;;
8466;SDS011;4270;48.148;11.648;2022-10-26T04:04:42;3.43;;;2.43;;
8466;SDS011;4270;48.148;11.648;2022-10-26T04:07:07;2.10;;;1.90;;
8466;SDS011;4270;48.148;11.648;2022-10-26T04:09:32;5.43;;;2.10;;
8466;SDS011;4270;48.148;11.648;2022-10-26T04:11:58;2.47;;;2.10;;
8466;SDS011;4270;48.148;11.648;2022-10-26T04:14:23;5.13;;;2.03;;
8466;SDS011;4270;48.148;11.648;2022-10-26T04:16:48;3.90;;;2.03;;
8466;SDS011;4270;48.148;11.648;2022-10-26T04:19:13;3.50;;;2.43;;
8466;SDS011;4270;48.148;11.648;2022-10-26T04:21:39;2.77;;;2.47;;
8466;SDS011;4270;48.148;11.648;2022-10-26T04:24:04;4.50;;;2.10;;
8466;SDS011;4270;48.148;11.648;2022-10-26T04:26:29;3.00;;;1.93;;
8466;SDS011;4270;48.148;11.648;2022-10-26T04:28:54;3.80;;;1.90;;
8466;SDS011;4270;48.148;11.648;2022-10-26T04:31:20;3.80;;;2.53;;
8466;SDS011;4270;48.148;11.648;2022-10-26T04:33:45;2.47;;;1.80;;
8466;SDS011;4270;48.148;11.648;2022-10-26T04:36:10;4.00;;;2.30;;
8466;SDS011;4270;48.148;11.648;2022-10-26T04:38:35;3.03;;;2.37;;
8466;SDS011;4270;48.148;11.648;2022-10-26T04:41:01;2.60;;;2.30;;
8466;SDS011;4270;48.148;11.648;2022-10-26T04:43:26;2.67;;;2.07;;
8466;SDS011;4270;48.148;11.648;2022-10-26T04:45:55;5.33;;;2.57;;
8466;SDS011;4270;48.148;11.648;2022-10-26T04:48:20;3.20;;;2.60;;
8466;SDS011;4270;48.148;11.648;2022-10-26T04:50:46;6.33;;;2.73;;
8466;SDS011;4270;48.148;11.648;2022-10-26T04:53:11;4.93;;;2.60;;
8466;SDS011;4270;48.148;11.648;2022-10-26T04:55:36;4.40;;;3.27;;
8466;SDS011;4270;48.148;11.648;2022-10-26T04:58:02;3.80;;;2.77;;
8466;SDS011;4270;48.148;11.648;2022-10-26T05:00:27;5.00;;;3.17;;
8466;SDS011;4270;48.148;11.648;2022-10-26T05:02:57;5.13;;;3.70;;
8466;SDS011;4270;48.148;11.648;2022-10-26T05:05:23;5.37;;;3.40;;
8466;SDS011;4270;48.148;11.648;2022-10-26T05:07:54;3.77;;;3.10;;
8466;SDS011;4270;48.148;11.648;2022-10-26T05:10:20;3.90;;;3.03;;
8466;SDS011;4270;48.148;11.648;2022-10-26T05:12:49;4.23;;;2.97;;
8466;SDS011;4270;48.148;11.648;2022-10-26T05:15:14;3.80;;;3.07;;
8466;SDS011;4270;48.148;11.648;2022-10-26T05:17:40;5.00;;;2.57;;
8466;SDS011;4270;48.148;11.648;2022-10-26T05:20:05;4.30;;;2.83;;
8466;SDS011;4270;48.148;11.648;2022-10-26T05:22:34;5.03;;;2.60;;
8466;SDS011;4270;48.148;11.648;2022-10-26T05:24:59;5.73;;;2.17;;
8466;SDS011;4270;48.148;11.648;2022-10-26T05:27:24;4.93;;;2.57;;
8466;SDS011;4270;48.148;11.648;2022-10-26T05:29:49;5.63;;;2.43;;
8466;SDS011;4270;48.148;11.648;2022-10-26T05:32:15;2.93;;;2.53;;
8466;SDS011;4270;48.148;11.648;2022-10-26T05:34:40;4.70;;;2.70;;
8466;SDS011;4270;48.148;11.648;2022-10-26T05:37:05;6.83;;;3.10;;
8466;SDS011;4270;48.148;11.648;2022-10-26T05:39:31;3.90;;;2.63;;
8466;SDS011;4270;48.148;11.648;2022-10-26T05:41:56;6.93;;;3.20;;
8466;SDS011;4270;48.148;11.648;2022-10-26T05:44:21;3.10;;;2.80;;
8466;SDS011;4270;48.148;11.648;2022-10-26T05:46:46;5.17;;;3.00;;
8466;SDS011;4270;48.148;11.648;2022-10-26T05:49:12;3.55;;;2.70;;
8466;SDS011;4270;48.148;11.648;2022-10-26T05:51:37;3.27;;;2.80;;
8466;SDS011;4270;48.148;11.648;2022-10-26T05:54:03;3.20;;;2.60;;
8466;SDS011;4270;48.148;11.648;2022-10-26T05:56:32;5.53;;;3.10;;
8466;SDS011;4270;48.148;11.648;2022-10-26T05:58:58;3.50;;;2.60;;
8466;SDS011;4270;48.148;11.648;2022-10-26T06:06:40;2.87;;;2.57;;
8466;SDS011;4270;48.148;11.648;2022-10-26T06:09:11;4.80;;;2.87;;
8466;SDS011;4270;48.148;11.648;2022-10-26T06:11:37;8.63;;;2.80;;
8466;SDS011;4270;48.148;11.648;2022-10-26T06:14:07;5.83;;;2.70;;
8466;SDS011;4270;48.148;11.648;2022-10-26T06:24:09;4.00;;;2.80;;
8466;SDS011;4270;48.148;11.648;2022-10-26T06:31:42;4.07;;;2.80;;
8466;SDS011;4270;48.148;11.648;2022-10-26T06:34:11;6.60;;;3.03;;
8466;SDS011;4270;48.148;11.648;2022-10-26T06:36:42;5.10;;;3.30;;
8466;SDS011;4270;48.148;11.648;2022-10-26T06:39:10;6.63;;;3.10;;
8466;SDS011;4270;48.148;11.648;2022-10-26T06:41:39;5.50;;;3.00;;
8466;SDS011;4270;48.148;11.648;2022-10-26T06:44:11;4.23;;;2.90;;
8466;SDS011;4270;48.148;11.648;2022-10-26T06:46:53;6.00;;;3.30;;
8466;SDS011;4270;48.148;11.648;2022-10-26T06:52:11;4.30;;;2.63;;
8466;SDS011;4270;48.148;11.648;2022-10-26T06:54:48;4.20;;;2.90;;
8466;SDS011;4270;48.148;11.648;2022-10-26T06:57:19;6.23;;;3.40;;
8466;SDS011;4270;48.148;11.648;2022-10-26T07:02:21;5.93;;;3.43;;
8466;SDS011;4270;48.148;11.648;2022-10-26T07:04:54;3.67;;;3.17;;
8466;SDS011;4270;48.148;11.648;2022-10-26T07:07:21;5.07;;;3.10;;
8466;SDS011;4270;48.148;11.648;2022-10-26T07:09:49;3.97;;;2.90;;
8466;SDS011;4270;48.148;11.648;2022-10-26T07:12:18;6.00;;;3.33;;
8466;SDS011;4270;48.148;11.648;2022-10-26T07:14:46;4.80;;;2.97;;
8466;SDS011;4270;48.148;11.648;2022-10-26T07:17:17;6.03;;;3.40;;
8466;SDS011;4270;48.148;11.648;2022-10-26T07:19:48;4.57;;;2.60;;
8466;SDS011;4270;48.148;11.648;2022-10-26T07:22:17;4.60;;;2.50;;
8466;SDS011;4270;48.148;11.648;2022-10-26T07:24:46;7.40;;;3.03;;
8466;SDS011;4270;48.148;11.648;2022-10-26T07:27:23;9.83;;;3.23;;
8466;SDS011;4270;48.148;11.648;2022-10-26T07:29:49;4.30;;;2.90;;
8466;SDS011;4270;48.148;11.648;2022-10-26T07:32:15;3.87;;;2.93;;
8466;SDS011;4270;48.148;11.648;2022-10-26T07:34:40;8.83;;;3.43;;
8466;SDS011;4270;48.148;11.648;2022-10-26T07:37:05;5.33;;;3.07;;
8466;SDS011;4270;48.148;11.648;2022-10-26T07:39:31;5.13;;;3.20;;
8466;SDS011;4270;48.148;11.648;2022-10-26T07:41:57;3.97;;;2.90;;
8466;SDS011;4270;48.148;11.648;2022-10-26T07:44:22;5.80;;;2.93;;
8466;SDS011;4270;48.148;11.648;2022-10-26T07:46:47;4.60;;;2.70;;
8466;SDS011;4270;48.148;11.648;2022-10-26T07:49:12;5.10;;;2.80;;
8466;SDS011;4270;48.148;11.648;2022-10-26T07:51:38;3.90;;;2.47;;
8466;SDS011;4270;48.148;11.648;2022-10-26T07:54:03;3.87;;;1.70;;
8466;SDS011;4270;48.148;11.648;2022-10-26T07:56:29;2.80;;;2.23;;
8466;SDS011;4270;48.148;11.648;2022-10-26T07:58:54;2.30;;;2.03;;
8466;SDS011;4270;48.148;11.648;2022-10-26T08:01:19;4.33;;;1.97;;
8466;SDS011;4270;48.148;11.648;2022-10-26T08:03:45;2.90;;;1.77;;
8466;SDS011;4270;48.148;11.648;2022-10-26T08:06:10;5.20;;;1.63;;
8466;SDS011;4270;48.148;11.648;2022-10-26T08:08:36;5.40;;;1.77;;
8466;SDS011;4270;48.148;11.648;2022-10-26T08:11:01;2.10;;;1.50;;
8466;SDS011;4270;48.148;11.648;2022-10-26T08:13:27;4.50;;;1.30;;
8466;SDS011;4270;48.148;11.648;2022-10-26T08:15:57;1.47;;;1.20;;
8466;SDS011;4270;48.148;11.648;2022-10-26T08:18:24;3.63;;;1.70;;
8466;SDS011;4270;48.148;11.648;2022-10-26T08:20:49;1.40;;;1.30;;
8466;SDS011;4270;48.148;11.648;2022-10-26T08:23:15;2.33;;;1.30;;
8466;SDS011;4270;48.148;11.648;2022-10-26T08:25:42;1.47;;;1.30;;
8466;SDS011;4270;48.148;11.648;2022-10-26T08:28:07;1.30;;;1.00;;
8466;SDS011;4270;48.148;11.648;2022-10-26T08:30:32;1.77;;;1.17;;
8466;SDS011;4270;48.148;11.648;2022-10-26T08:32:58;2.90;;;1.50;;
8466;SDS011;4270;48.148;11.648;2022-10-26T08:35:24;2.13;;;1.50;;
8466;SDS011;4270;48.148;11.648;2022-10-26T08:37:50;1.23;;;1.13;;
8466;SDS011;4270;48.148;11.648;2022-10-26T08:40:16;1.30;;;1.17;;
8466;SDS011;4270;48.148;11.648;2022-10-26T08:42:42;6.97;;;1.77;;
8466;SDS011;4270;48.148;11.648;2022-10-26T08:45:22;3.30;;;1.10;;
8466;SDS011;4270;48.148;11.648;2022-10-26T08:47:49;2.87;;;1.50;;
8466;SDS011;4270;48.148;11.648;2022-10-26T08:52:50;3.00;;;1.30;;
8466;SDS011;4270;48.148;11.648;2022-10-26T08:55:18;2.13;;;1.27;;
8466;SDS011;4270;48.148;11.648;2022-10-26T08:57:44;2.10;;;1.43;;
8466;SDS011;4270;48.148;11.648;2022-10-26T09:00:16;7.10;;;1.27;;
8466;SDS011;4270;48.148;11.648;2022-10-26T09:02:42;2.93;;;1.10;;
8466;SDS011;4270;48.148;11.648;2022-10-26T09:05:13;1.93;;;1.20;;
8466;SDS011;4270;48.148;11.648;2022-10-26T09:25:41;2.40;;;1.33;;
8466;SDS011;4270;48.148;11.648;2022-10-26T09:28:10;1.53;;;1.13;;
8466;SDS011;4270;48.148;11.648;2022-10-26T09:30:38;5.57;;;1.40;;
8466;SDS011;4270;48.148;11.648;2022-10-26T09:33:24;2.47;;;1.40;;
8466;SDS011;4270;48.148;11.648;2022-10-26T09:43:16;4.07;;;1.40;;
8466;SDS011;4270;48.148;11.648;2022-10-26T09:45:47;2.60;;;1.10;;
8466;SDS011;4270;48.148;11.648;2022-10-26T09:48:14;2.07;;;1.10;;
8466;SDS011;4270;48.148;11.648;2022-10-26T09:50:41;1.77;;;1.27;;
8466;SDS011;4270;48.148;11.648;2022-10-26T09:53:08;2.30;;;1.10;;
8466;SDS011;4270;48.148;11.648;2022-10-26T09:55:35;1.30;;;1.00;;
8466;SDS011;4270;48.148;11.648;2022-10-26T09:58:03;4.60;;;1.20;;
8466;SDS011;4270;48.148;11.648;2022-10-26T10:00:30;2.90;;;1.23;;
8466;SDS011;4270;48.148;11.648;2022-10-26T10:02:57;3.27;;;1.17;;
8466;SDS011;4270;48.148;11.648;2022-10-26T10:07:48;2.23;;;1.17;;
8466;SDS011;4270;48.148;11.648;2022-10-26T10:10:17;3.00;;;1.33;;
8466;SDS011;4270;48.148;11.648;2022-10-26T10:12:43;2.73;;;1.00;;
8466;SDS011;4270;48.148;11.648;2022-10-26T10:15:42;6.43;;;1.20;;
8466;SDS011;4270;48.148;11.648;2022-10-26T10:18:00;5.57;;;1.30;;
8466;SDS011;4270;48.148;11.648;2022-10-26T10:20:34;5.20;;;1.30;;
8466;SDS011;4270;48.148;11.648;2022-10-26T10:23:00;2.60;;;1.30;;
8466;SDS011;4270;48.148;11.648;2022-10-26T10:25:33;2.07;;;1.20;;
8466;SDS011;4270;48.148;11.648;2022-10-26T10:27:59;2.13;;;1.10;;
8466;SDS011;4270;48.148;11.648;2022-10-26T10:30:31;2.60;;;0.93;;
8466;SDS011;4270;48.148;11.648;2022-10-26T10:33:04;2.40;;;1.57;;
8466;SDS011;4270;48.148;11.648;2022-10-26T10:35:29;2.60;;;1.40;;
8466;SDS011;4270;48.148;11.648;2022-10-26T10:37:54;3.50;;;1.50;;
8466;SDS011;4270;48.148;11.648;2022-10-26T10:40:20;2.57;;;1.23;;
8466;SDS011;4270;48.148;11.648;2022-10-26T10:42:46;2.10;;;1.00;;
8466;SDS011;4270;48.148;11.648;2022-10-26T10:45:19;1.53;;;1.07;;
8466;SDS011;4270;48.148;11.648;2022-10-26T10:50:22;4.93;;;1.73;;
8466;SDS011;4270;48.148;11.648;2022-10-26T10:52:48;3.60;;;1.10;;
8466;SDS011;4270;48.148;11.648;2022-10-26T11:00:23;3.20;;;1.47;;
8466;SDS011;4270;48.148;11.648;2022-10-26T11:03:13;3.00;;;1.07;;
8466;SDS011;4270;48.148;11.648;2022-10-26T11:11:20;4.30;;;1.80;;
8466;SDS011;4270;48.148;11.648;2022-10-26T11:16:31;6.60;;;2.00;;
8466;SDS011;4270;48.148;11.648;2022-10-26T11:21:24;6.07;;;2.30;;
8466;SDS011;4270;48.148;11.648;2022-10-26T11:23:56;11.40;;;2.27;;
8466;SDS011;4270;48.148;11.648;2022-10-26T11:31:24;3.57;;;1.30;;
8466;SDS011;4270;48.148;11.648;2022-10-26T11:34:37;4.37;;;1.07;;
8466;SDS011;4270;48.148;11.648;2022-10-26T11:36:35;4.93;;;1.37;;
8466;SDS011;4270;48.148;11.648;2022-10-26T11:41:42;1.97;;;1.63;;
8466;SDS011;4270;48.148;11.648;2022-10-26T11:44:12;3.33;;;1.80;;
8466;SDS011;4270;48.148;11.648;2022-10-26T11:46:42;4.57;;;1.70;;
8466;SDS011;4270;48.148;11.648;2022-10-26T11:51:58;12.00;;;2.20;;
8466;SDS011;4270;48.148;11.648;2022-10-26T11:54:30;5.93;;;2.00;;
8466;SDS011;4270;48.148;11.648;2022-10-26T11:56:56;3.50;;;1.70;;
8466;SDS011;4270;48.148;11.648;2022-10-26T11:59:23;6.43;;;1.90;;
8466;SDS011;4270;48.148;11.648;2022-10-26T12:02:23;4.30;;;1.50;;
8466;SDS011;4270;48.148;11.648;2022-10-26T12:04:40;3.33;;;1.50;;
8466;SDS011;4270;48.148;11.648;2022-10-26T12:07:08;4.37;;;1.60;;
8466;SDS011;4270;48.148;11.648;2022-10-26T12:09:37;3.83;;;1.87;;
8466;SDS011;4270;48.148;11.648;2022-10-26T12:12:46;5.70;;;1.90;;
8466;SDS011;4270;48.148;11.648;2022-10-26T12:14:55;4.50;;;1.50;;
8466;SDS011;4270;48.148;11.648;2022-10-26T12:17:25;4.93;;;1.73;;
8466;SDS011;4270;48.148;11.648;2022-10-26T12:22:19;2.80;;;1.80;;
8466;SDS011;4270;48.148;11.648;2022-10-26T12:24:46;2.83;;;1.70;;
8466;SDS011;4270;48.148;11.648;2022-10-26T12:37:52;4.80;;;2.47;;
8466;SDS011;4270;48.148;11.648;2022-10-26T12:42:54;7.87;;;1.80;;
8466;SDS011;4270;48.148;11.648;2022-10-26T12:45:19;6.17;;;1.67;;
8466;SDS011;4270;48.148;11.648;2022-10-26T13:00:10;8.00;;;2.20;;
8466;SDS011;4270;48.148;11.648;2022-10-26T13:05:06;1.63;;;1.30;;
8466;SDS011;4270;48.148;11.648;2022-10-26T13:07:43;10.20;;;3.63;;
8466;SDS011;4270;48.148;11.648;2022-10-26T13:12:47;5.70;;;2.70;;
8466;SDS011;4270;48.148;11.648;2022-10-26T13:15:56;7.00;;;4.83;;
8466;SDS011;4270;48.148;11.648;2022-10-26T13:18:08;10.63;;;4.27;;
8466;SDS011;4270;48.148;11.648;2022-10-26T13:20:35;9.93;;;3.53;;
8466;SDS011;4270;48.148;11.648;2022-10-26T13:23:01;4.10;;;2.30;;
8466;SDS011;4270;48.148;11.648;2022-10-26T13:25:29;5.10;;;2.10;;
8466;SDS011;4270;48.148;11.648;2022-10-26T13:28:02;7.00;;;3.00;;
8466;SDS011;4270;48.148;11.648;2022-10-26T13:32:56;7.90;;;2.70;;
8466;SDS011;4270;48.148;11.648;2022-10-26T13:35:22;6.97;;;3.30;;
8466;SDS011;4270;48.148;11.648;2022-10-26T13:37:49;9.10;;;3.80;;
8466;SDS011;4270;48.148;11.648;2022-10-26T13:40:16;8.00;;;2.57;;
8466;SDS011;4270;48.148;11.648;2022-10-26T13:42:49;4.53;;;1.90;;
8466;SDS011;4270;48.148;11.648;2022-10-26T13:45:20;2.80;;;1.47;;
8466;SDS011;4270;48.148;11.648;2022-10-26T13:47:48;4.77;;;1.80;;
8466;SDS011;4270;48.148;11.648;2022-10-26T13:50:15;5.00;;;2.10;;
8466;SDS011;4270;48.148;11.648;2022-10-26T13:52:43;7.30;;;2.90;;
8466;SDS011;4270;48.148;11.648;2022-10-26T13:55:13;3.33;;;1.83;;
8466;SDS011;4270;48.148;11.648;2022-10-26T13:57:42;4.43;;;1.80;;
8466;SDS011;4270;48.148;11.648;2022-10-26T14:02:40;7.93;;;1.87;;
8466;SDS011;4270;48.148;11.648;2022-10-26T14:05:08;4.00;;;1.50;;
8466;SDS011;4270;48.148;11.648;2022-10-26T14:09:59;6.93;;;1.97;;
8466;SDS011;4270;48.148;11.648;2022-10-26T14:12:25;5.03;;;1.80;;
8466;SDS011;4270;48.148;11.648;2022-10-26T14:14:53;5.13;;;2.07;;
8466;SDS011;4270;48.148;11.648;2022-10-26T14:17:21;5.50;;;2.00;;
8466;SDS011;4270;48.148;11.648;2022-10-26T14:19:48;5.53;;;1.40;;
8466;SDS011;4270;48.148;11.648;2022-10-26T14:22:21;5.87;;;2.27;;
8466;SDS011;4270;48.148;11.648;2022-10-26T14:24:51;5.90;;;1.83;;
8466;SDS011;4270;48.148;11.648;2022-10-26T14:27:17;4.60;;;1.87;;
8466;SDS011;4270;48.148;11.648;2022-10-26T14:29:43;14.50;;;2.33;;
8466;SDS011;4270;48.148;11.648;2022-10-26T14:35:10;4.63;;;1.93;;
8466;SDS011;4270;48.148;11.648;2022-10-26T14:37:37;4.03;;;1.77;;
8466;SDS011;4270;48.148;11.648;2022-10-26T14:40:04;6.07;;;2.13;;
8466;SDS011;4270;48.148;11.648;2022-10-26T14:42:31;7.70;;;2.50;;
8466;SDS011;4270;48.148;11.648;2022-10-26T14:44:56;2.90;;;1.67;;
8466;SDS011;4270;48.148;11.648;2022-10-26T14:47:29;4.30;;;2.20;;
8466;SDS011;4270;48.148;11.648;2022-10-26T14:49:54;5.50;;;2.00;;
8466;SDS011;4270;48.148;11.648;2022-10-26T14:52:27;4.50;;;1.90;;
8466;SDS011;4270;48.148;11.648;2022-10-26T14:54:57;4.87;;;2.00;;
8466;SDS011;4270;48.148;11.648;2022-10-26T14:57:27;4.93;;;2.10;;
8466;SDS011;4270;48.148;11.648;2022-10-26T15:00:00;4.37;;;2.13;;
8466;SDS011;4270;48.148;11.648;2022-10-26T15:02:25;4.90;;;2.13;;
8466;SDS011;4270;48.148;11.648;2022-10-26T15:05:01;10.77;;;2.37;;
8466;SDS011;4270;48.148;11.648;2022-10-26T15:07:33;8.33;;;2.23;;
8466;SDS011;4270;48.148;11.648;2022-10-26T15:09:58;5.10;;;1.90;;
8466;SDS011;4270;48.148;11.648;2022-10-26T15:12:26;9.13;;;2.07;;
8466;SDS011;4270;48.148;11.648;2022-10-26T15:14:52;4.63;;;1.80;;
8466;SDS011;4270;48.148;11.648;2022-10-26T15:17:29;5.47;;;2.07;;
8466;SDS011;4270;48.148;11.648;2022-10-26T15:19:57;8.93;;;1.73;;
8466;SDS011;4270;48.148;11.648;2022-10-26T15:22:26;8.20;;;1.93;;
8466;SDS011;4270;48.148;11.648;2022-10-26T15:24:53;5.90;;;2.40;;
8466;SDS011;4270;48.148;11.648;2022-10-26T15:27:19;5.40;;;2.33;;
8466;SDS011;4270;48.148;11.648;2022-10-26T15:29:47;4.40;;;1.83;;
8466;SDS011;4270;48.148;11.648;2022-10-26T15:32:29;3.73;;;2.10;;
8466;SDS011;4270;48.148;11.648;2022-10-26T15:37:35;8.40;;;2.33;;
8466;SDS011;4270;48.148;11.648;2022-10-26T15:40:00;8.10;;;2.93;;
8466;SDS011;4270;48.148;11.648;2022-10-26T15:42:26;4.27;;;2.10;;
8466;SDS011;4270;48.148;11.648;2022-10-26T15:44:51;8.80;;;2.47;;
8466;SDS011;4270;48.148;11.648;2022-10-26T15:47:17;9.00;;;2.50;;
8466;SDS011;4270;48.148;11.648;2022-10-26T15:49:44;7.40;;;2.40;;
8466;SDS011;4270;48.148;11.648;2022-10-26T15:52:09;6.03;;;2.43;;
8466;SDS011;4270;48.148;11.648;2022-10-26T15:54:34;6.17;;;2.10;;
8466;SDS011;4270;48.148;11.648;2022-10-26T15:57:00;8.47;;;2.53;;
8466;SDS011;4270;48.148;11.648;2022-10-26T15:59:25;7.13;;;2.60;;
8466;SDS011;4270;48.148;11.648;2022-10-26T16:01:51;5.53;;;2.37;;
8466;SDS011;4270;48.148;11.648;2022-10-26T16:04:16;4.77;;;2.00;;
8466;SDS011;4270;48.148;11.648;2022-10-26T16:06:42;7.13;;;2.60;;
8466;SDS011;4270;48.148;11.648;2022-10-26T16:09:09;9.80;;;3.30;;
8466;SDS011;4270;48.148;11.648;2022-10-26T16:11:36;4.90;;;2.77;;
8466;SDS011;4270;48.148;11.648;2022-10-26T16:14:01;4.90;;;2.60;;
8466;SDS011;4270;48.148;11.648;2022-10-26T16:16:27;8.03;;;2.90;;
8466;SDS011;4270;48.148;11.648;2022-10-26T16:18:53;10.57;;;2.50;;
8466;SDS011;4270;48.148;11.648;2022-10-26T16:21:18;6.73;;;2.60;;
8466;SDS011;4270;48.148;11.648;2022-10-26T16:23:44;8.50;;;2.53;;
8466;SDS011;4270;48.148;11.648;2022-10-26T16:26:10;6.13;;;2.40;;
8466;SDS011;4270;48.148;11.648;2022-10-26T16:28:35;10.77;;;3.10;;
8466;SDS011;4270;48.148;11.648;2022-10-26T16:31:01;3.37;;;2.30;;
8466;SDS011;4270;48.148;11.648;2022-10-26T16:33:27;9.13;;;3.20;;
8466;SDS011;4270;48.148;11.648;2022-10-26T16:35:55;7.40;;;3.20;;
8466;SDS011;4270;48.148;11.648;2022-10-26T16:38:21;5.60;;;2.50;;
8466;SDS011;4270;48.148;11.648;2022-10-26T16:40:46;6.53;;;2.63;;
8466;SDS011;4270;48.148;11.648;2022-10-26T16:43:11;8.97;;;2.70;;
8466;SDS011;4270;48.148;11.648;2022-10-26T16:45:37;9.43;;;2.90;;
8466;SDS011;4270;48.148;11.648;2022-10-26T16:48:03;7.40;;;3.40;;
8466;SDS011;4270;48.148;11.648;2022-10-26T16:50:30;9.53;;;2.60;;
8466;SDS011;4270;48.148;11.648;2022-10-26T16:52:56;8.97;;;3.20;;
8466;SDS011;4270;48.148;11.648;2022-10-26T16:55:21;12.83;;;3.50;;
8466;SDS011;4270;48.148;11.648;2022-10-26T16:57:48;10.53;;;3.60;;
8466;SDS011;4270;48.148;11.648;2022-10-26T17:00:13;4.83;;;2.90;;
8466;SDS011;4270;48.148;11.648;2022-10-26T17:02:38;6.70;;;3.33;;
8466;SDS011;4270;48.148;11.648;2022-10-26T17:05:04;8.03;;;3.70;;
8466;SDS011;4270;48.148;11.648;2022-10-26T17:07:29;9.07;;;3.20;;
8466;SDS011;4270;48.148;11.648;2022-10-26T17:09:55;10.40;;;3.33;;
8466;SDS011;4270;48.148;11.648;2022-10-26T17:12:20;15.83;;;3.40;;
8466;SDS011;4270;48.148;11.648;2022-10-26T17:14:45;9.10;;;3.03;;
8466;SDS011;4270;48.148;11.648;2022-10-26T17:17:10;11.50;;;3.97;;
8466;SDS011;4270;48.148;11.648;2022-10-26T17:19:35;5.33;;;3.10;;
8466;SDS011;4270;48.148;11.648;2022-10-26T17:22:01;7.13;;;3.73;;
8466;SDS011;4270;48.148;11.648;2022-10-26T17:24:26;7.87;;;3.90;;
8466;SDS011;4270;48.148;11.648;2022-10-26T17:26:51;9.37;;;3.73;;
8466;SDS011;4270;48.148;11.648;2022-10-26T17:29:17;7.80;;;3.63;;
8466;SDS011;4270;48.148;11.648;2022-10-26T17:31:42;10.73;;;3.77;;
8466;SDS011;4270;48.148;11.648;2022-10-26T17:34:07;6.87;;;3.80;;
8466;SDS011;4270;48.148;11.648;2022-10-26T17:36:32;11.90;;;4.80;;